KDGW

Converse County Airport

Douglas, Wyoming, USA
METAR KDGW 191053Z AUTO 36004KT 10SM CLR 12/10 A2998 RMK AO2 SLP098 T01170100
Observed Flight Rules
Sep-19 @ 10:53 UTC (11 minutes ago) Visual Flight Rules
Wind Visibility Clouds
360° at 4 knots 10 miles
  • Clear skies
Temperatures Readings
Current 12°C / 54°F
Dewpoint 10°C / 50°F
Humidity 88%
Altimeter 29.98" Hg
Pressure 1009.8 hPa
Elevation 1499
METAR KDGW 191053Z AUTO 36004KT 10SM CLR 12/10 A2998 RMK AO2 SLP098 T01170100
Observed Flight Rules
Sep-19 @ 10:53 UTC
(11 minutes ago)
VFR
Wind Visibility
360° at 4 knots 10 miles
Clouds
  • Clear skies
Temperature Dewpoint
12°C / 54°F 10°C / 50°F
Humidity Altimeter Pressure
88% 29.98" Hg 1009.8 hPa